Time;durP1;ratioP1;P1;durP2;ratioP2;P2;SDS_P1;SDS_P2;PMS_P1;PMS_P2;Temp;Humidity;BMP_temperature;BMP_pressure;BME280_temperature;BME280_humidity;BME280_pressure;Samples;Min_cycle;Max_cycle;Signal;HPM_P1;HPM_P2
2021/07/15 00:00:09;;;;;;;1.83;1.07;;;18.50;99.90;;;;;;4937873;29;20489;-80
2021/07/15 00:02:35;;;;;;;1.27;1.17;;;18.50;99.90;;;;;;4940436;29;20482;-80
2021/07/15 00:05:01;;;;;;;0.80;0.60;;;18.50;99.90;;;;;;4932997;29;20527;-79
2021/07/15 00:07:26;;;;;;;0.70;0.70;;;18.50;99.90;;;;;;4940732;29;20644;-79
2021/07/15 00:09:52;;;;;;;1.10;1.00;;;18.50;99.90;;;;;;4954478;28;20556;-79
2021/07/15 00:12:17;;;;;;;1.63;0.83;;;18.50;99.90;;;;;;4936531;29;20202;-78
2021/07/15 00:14:44;;;;;;;1.10;0.90;;;18.50;99.90;;;;;;4933489;29;20227;-79
2021/07/15 00:17:09;;;;;;;0.90;0.80;;;18.50;99.90;;;;;;4941524;29;20179;-79
2021/07/15 00:19:35;;;;;;;2.23;2.13;;;18.60;99.90;;;;;;4938528;29;20438;-79
2021/07/15 00:22:01;;;;;;;1.00;0.90;;;18.50;99.90;;;;;;4952590;28;20264;-80
2021/07/15 00:24:28;;;;;;;1.37;0.80;;;18.50;99.90;;;;;;4931051;29;20205;-81
2021/07/15 00:26:54;;;;;;;0.70;0.60;;;18.50;99.90;;;;;;4941028;29;20477;-79
2021/07/15 00:29:21;;;;;;;1.77;0.83;;;18.50;99.90;;;;;;4939119;29;20437;-80
2021/07/15 00:31:47;;;;;;;1.30;1.20;;;18.60;99.90;;;;;;4938510;29;20454;-80
2021/07/15 00:34:12;;;;;;;0.70;0.50;;;18.50;99.90;;;;;;4938941;29;20447;-79
2021/07/15 00:36:38;;;;;;;0.70;0.60;;;18.50;99.90;;;;;;4943918;29;20469;-78
2021/07/15 00:39:05;;;;;;;1.00;0.90;;;18.50;99.90;;;;;;4941763;29;20226;-78
2021/07/15 00:41:31;;;;;;;0.70;0.60;;;18.50;99.90;;;;;;4963066;28;20210;-79
2021/07/15 00:43:56;;;;;;;1.87;1.70;;;18.50;99.90;;;;;;4935774;29;20528;-79
2021/07/15 00:46:22;;;;;;;0.70;0.50;;;18.50;99.90;;;;;;4944401;29;20584;-79
2021/07/15 00:48:48;;;;;;;0.70;0.60;;;18.50;99.90;;;;;;4938561;29;20249;-82
2021/07/15 00:51:15;;;;;;;0.80;0.80;;;18.40;99.90;;;;;;4950780;29;20210;-80
2021/07/15 00:53:40;;;;;;;1.20;1.03;;;18.40;99.90;;;;;;4938405;28;20663;-79
2021/07/15 00:56:07;;;;;;;0.70;0.60;;;18.30;99.90;;;;;;4931661;29;20525;-79
2021/07/15 00:58:33;;;;;;;0.70;0.50;;;18.30;99.90;;;;;;4948581;28;20183;-79
2021/07/15 01:00:59;;;;;;;1.57;0.60;;;18.30;99.90;;;;;;4931576;29;20459;-79
2021/07/15 01:03:24;;;;;;;0.90;0.90;;;18.20;99.90;;;;;;4930533;28;20206;-78
2021/07/15 01:05:53;;;;;;;0.70;0.50;;;18.30;99.90;;;;;;4957292;28;20200;-79
2021/07/15 01:08:19;;;;;;;1.00;0.70;;;18.20;99.90;;;;;;4957390;29;20190;-79
2021/07/15 01:11:00;;;;;;;1.10;0.80;;;18.20;99.90;;;;;;4940792;29;20466;-79
2021/07/15 01:13:53;;;;;;;1.17;1.07;;;18.20;99.90;;;;;;4957407;28;20588;-78
2021/07/15 01:16:21;;;;;;;2.10;2.00;;;18.20;99.90;;;;;;4927786;29;20426;-79
2021/07/15 01:19:18;;;;;;;0.83;0.67;;;18.20;99.90;;;;;;4935185;29;20431;-79
2021/07/15 01:22:02;;;;;;;1.33;0.70;;;18.20;99.90;;;;;;4936860;29;20458;-79
2021/07/15 01:25:06;;;;;;;0.87;0.60;;;18.20;99.90;;;;;;4939259;29;20434;-79
2021/07/15 01:28:05;;;;;;;0.70;0.50;;;18.20;99.90;;;;;;4935512;29;20446;-80
2021/07/15 01:30:45;;;;;;;0.70;0.60;;;18.10;99.90;;;;;;4894628;29;20482;-80
2021/07/15 01:33:33;;;;;;;0.70;0.50;;;18.10;99.90;;;;;;4933254;29;20439;-80
2021/07/15 01:36:05;;;;;;;0.80;0.80;;;18.10;99.90;;;;;;4935527;29;20454;-78
2021/07/15 01:38:56;;;;;;;0.70;0.50;;;18.10;99.90;;;;;;4942721;29;20443;-79
2021/07/15 01:41:31;;;;;;;0.80;0.80;;;18.00;99.90;;;;;;4951939;29;20453;-78
2021/07/15 01:44:18;;;;;;;0.80;0.50;;;18.00;99.90;;;;;;4937688;29;20947;-79
2021/07/15 01:46:44;;;;;;;1.37;0.77;;;18.00;99.90;;;;;;4941114;29;20454;-79
2021/07/15 01:49:11;;;;;;;0.80;0.60;;;18.00;99.90;;;;;;4942976;29;20485;-79
2021/07/15 01:51:37;;;;;;;0.70;0.50;;;17.90;99.90;;;;;;4943768;29;21070;-79
2021/07/15 01:54:04;;;;;;;0.70;0.50;;;17.90;99.90;;;;;;4964666;28;20464;-78
2021/07/15 01:56:30;;;;;;;3.00;1.93;;;18.00;99.90;;;;;;4936999;29;20449;-79
2021/07/15 01:58:58;;;;;;;1.47;1.33;;;17.90;99.90;;;;;;4936295;29;20437;-80
2021/07/15 02:01:25;;;;;;;2.73;1.60;;;18.00;99.90;;;;;;4940166;29;20470;-80
2021/07/15 02:03:54;;;;;;;0.87;0.80;;;18.00;99.90;;;;;;4947270;29;20496;-80
2021/07/15 02:06:22;;;;;;;1.17;1.07;;;18.00;99.90;;;;;;4955755;29;20462;-79
2021/07/15 02:08:50;;;;;;;1.03;0.90;;;17.90;99.90;;;;;;4937788;29;20442;-80
2021/07/15 02:11:16;;;;;;;1.13;0.70;;;18.00;99.90;;;;;;4937792;29;20565;-79
2021/07/15 02:13:43;;;;;;;0.90;0.90;;;17.90;99.90;;;;;;4948128;29;20438;-80
2021/07/15 02:16:10;;;;;;;0.70;0.60;;;17.90;99.90;;;;;;4938996;29;20974;-80
2021/07/15 02:18:38;;;;;;;1.00;0.90;;;17.90;99.90;;;;;;4937212;29;20436;-79
2021/07/15 02:21:04;;;;;;;0.70;0.60;;;17.90;99.90;;;;;;4940808;29;20486;-79
2021/07/15 02:23:31;;;;;;;0.70;0.60;;;17.90;99.90;;;;;;4931233;29;20454;-79
2021/07/15 02:25:58;;;;;;;0.80;0.60;;;17.90;99.90;;;;;;4938343;29;20960;-79
2021/07/15 02:28:26;;;;;;;0.80;0.80;;;17.90;99.90;;;;;;4937537;29;20550;-79
2021/07/15 02:31:01;;;;;;;0.97;0.63;;;17.80;99.90;;;;;;4937181;29;20464;-79
2021/07/15 02:33:29;;;;;;;1.20;0.70;;;17.80;99.90;;;;;;4940845;29;20458;-80
2021/07/15 02:35:59;;;;;;;0.70;0.60;;;17.80;99.90;;;;;;4934576;29;20514;-79
2021/07/15 02:38:28;;;;;;;0.80;0.70;;;17.80;99.90;;;;;;4931181;29;20514;-80
2021/07/15 02:40:54;;;;;;;0.70;0.50;;;17.80;99.90;;;;;;4936604;29;20478;-79
2021/07/15 02:43:20;;;;;;;0.77;0.57;;;17.70;99.90;;;;;;4935830;29;20961;-79
2021/07/15 02:45:45;;;;;;;0.70;0.60;;;17.70;99.90;;;;;;4938670;29;20219;-79
2021/07/15 02:48:14;;;;;;;0.80;0.80;;;17.70;99.90;;;;;;4937195;29;20836;-80
2021/07/15 02:50:39;;;;;;;1.07;0.70;;;17.70;99.90;;;;;;4937428;29;20214;-79
2021/07/15 02:53:05;;;;;;;1.77;1.67;;;17.70;99.90;;;;;;4938785;29;20820;-79
2021/07/15 02:55:30;;;;;;;0.93;0.80;;;17.70;99.90;;;;;;4944661;29;20648;-79
2021/07/15 02:58:11;;;;;;;0.80;0.67;;;17.70;99.90;;;;;;4943993;28;20187;-78
2021/07/15 03:00:44;;;;;;;0.70;0.60;;;17.70;99.90;;;;;;4942406;29;20182;-78
2021/07/15 03:03:21;;;;;;;1.00;0.90;;;17.70;99.90;;;;;;4940832;29;20446;-79
2021/07/15 03:06:08;;;;;;;0.80;0.60;;;17.70;99.90;;;;;;4924563;29;20427;-79
2021/07/15 03:08:38;;;;;;;0.80;0.70;;;17.60;99.90;;;;;;4943154;29;20475;-79
2021/07/15 03:11:05;;;;;;;3.10;2.80;;;17.70;99.90;;;;;;4935218;29;20468;-79
2021/07/15 03:13:32;;;;;;;3.37;1.63;;;17.60;99.90;;;;;;4936942;29;20447;-78
2021/07/15 03:15:58;;;;;;;0.80;0.70;;;17.60;99.90;;;;;;4937971;29;20781;-79
2021/07/15 03:18:28;;;;;;;1.53;1.23;;;17.70;99.90;;;;;;4934779;29;20523;-79
2021/07/15 03:20:56;;;;;;;2.70;2.37;;;17.70;99.90;;;;;;4938155;29;20434;-79
2021/07/15 03:23:24;;;;;;;1.43;1.33;;;17.60;99.90;;;;;;4936356;29;20443;-78
2021/07/15 03:25:52;;;;;;;0.87;0.87;;;17.60;99.90;;;;;;4936859;29;20803;-79
2021/07/15 03:28:21;;;;;;;4.73;4.20;;;17.60;99.90;;;;;;4937927;29;20431;-80
2021/07/15 03:30:50;;;;;;;1.03;0.93;;;17.60;99.90;;;;;;4936521;29;20466;-80
2021/07/15 03:33:19;;;;;;;2.50;1.30;;;17.60;99.90;;;;;;4939189;29;20491;-80
2021/07/15 03:35:46;;;;;;;1.27;1.07;;;17.60;99.90;;;;;;4940812;29;20777;-79
2021/07/15 03:38:13;;;;;;;1.03;0.93;;;17.70;99.90;;;;;;4956977;28;20426;-79
2021/07/15 03:40:39;;;;;;;5.83;1.70;;;17.70;99.90;;;;;;4938556;29;20442;-78
2021/07/15 03:43:08;;;;;;;0.70;0.60;;;17.60;99.90;;;;;;4947281;29;20924;-78
2021/07/15 03:45:34;;;;;;;7.83;2.23;;;17.60;99.90;;;;;;4932957;29;20435;-80
2021/07/15 03:48:01;;;;;;;2.07;0.93;;;17.60;99.90;;;;;;4937198;29;21010;-79
2021/07/15 03:50:31;;;;;;;0.97;0.87;;;17.60;99.90;;;;;;4938473;29;20553;-79
2021/07/15 03:52:58;;;;;;;0.80;0.70;;;17.70;99.90;;;;;;4935441;29;20458;-79
2021/07/15 03:55:30;;;;;;;4.80;0.80;;;17.70;99.90;;;;;;4936488;29;20439;-80
2021/07/15 03:57:57;;;;;;;1.30;1.20;;;17.70;99.90;;;;;;4935198;29;20431;-79
2021/07/15 04:00:24;;;;;;;1.53;1.30;;;17.70;99.90;;;;;;4934613;29;20446;-80
2021/07/15 04:03:00;;;;;;;1.67;1.57;;;17.70;99.90;;;;;;4935961;29;20831;-81
2021/07/15 04:05:28;;;;;;;1.43;1.33;;;17.70;99.90;;;;;;4942198;29;20480;-78
2021/07/15 04:07:55;;;;;;;0.97;0.90;;;17.70;99.90;;;;;;4933720;29;20442;-79
2021/07/15 04:10:21;;;;;;;1.17;1.07;;;17.70;99.90;;;;;;4931184;29;20474;-79
2021/07/15 04:12:47;;;;;;;1.53;1.23;;;17.80;99.90;;;;;;4936204;29;20454;-79
2021/07/15 04:15:17;;;;;;;1.70;1.50;;;17.80;99.90;;;;;;4935277;29;20873;-79
2021/07/15 04:17:55;;;;;;;1.10;1.00;;;17.80;99.90;;;;;;4937145;29;20704;-78
2021/07/15 04:20:25;;;;;;;1.10;0.73;;;17.80;99.90;;;;;;4935680;29;20872;-78
2021/07/15 04:22:57;;;;;;;1.30;0.90;;;17.70;99.90;;;;;;4938968;29;20828;-79
2021/07/15 04:25:24;;;;;;;0.70;0.67;;;17.80;99.90;;;;;;4941332;29;20481;-79
2021/07/15 04:27:53;;;;;;;1.50;1.03;;;17.70;99.90;;;;;;4942185;29;20438;-78
2021/07/15 04:30:20;;;;;;;2.60;1.17;;;17.70;99.90;;;;;;4945076;29;20466;-78
2021/07/15 04:33:04;;;;;;;2.10;2.00;;;17.80;99.90;;;;;;4935062;29;20455;-78
2021/07/15 04:35:32;;;;;;;1.00;0.90;;;17.80;99.90;;;;;;4935165;29;20448;-79
2021/07/15 04:37:59;;;;;;;1.30;1.03;;;17.80;99.90;;;;;;4936547;29;20443;-79
2021/07/15 04:40:26;;;;;;;3.50;3.23;;;17.80;99.90;;;;;;4931616;29;20470;-78
2021/07/15 04:43:04;;;;;;;3.07;2.97;;;17.90;99.90;;;;;;4938125;29;20450;-79
2021/07/15 04:45:33;;;;;;;16.73;1.37;;;17.80;99.90;;;;;;4934534;29;20774;-79
2021/07/15 04:47:59;;;;;;;2.77;1.80;;;17.90;99.90;;;;;;4938101;29;20431;-79
2021/07/15 04:50:28;;;;;;;4.53;2.63;;;17.80;99.90;;;;;;4938860;29;20532;-78
2021/07/15 04:53:01;;;;;;;2.00;0.90;;;17.80;99.90;;;;;;4936957;29;20450;-79
2021/07/15 04:55:27;;;;;;;3.53;1.33;;;17.90;99.90;;;;;;4957058;28;20433;-78
2021/07/15 04:57:54;;;;;;;3.10;2.00;;;17.90;99.90;;;;;;4939044;29;20435;-79
2021/07/15 05:00:21;;;;;;;2.00;1.90;;;18.00;99.90;;;;;;4947973;29;20435;-78
2021/07/15 05:02:50;;;;;;;2.10;0.80;;;18.00;99.90;;;;;;4936690;29;20449;-80
2021/07/15 05:05:15;;;;;;;0.90;0.90;;;18.00;99.90;;;;;;4937043;29;20423;-80
2021/07/15 05:07:41;;;;;;;2.40;1.70;;;18.00;99.90;;;;;;4945325;29;20426;-79
2021/07/15 05:10:09;;;;;;;0.70;0.70;;;17.90;99.90;;;;;;4937843;29;20202;-79
2021/07/15 05:12:35;;;;;;;1.83;1.53;;;18.00;99.90;;;;;;4920085;29;20207;-78
2021/07/15 05:15:01;;;;;;;3.93;2.93;;;18.00;99.90;;;;;;4935271;29;20418;-79
2021/07/15 05:17:27;;;;;;;1.00;0.87;;;18.10;99.90;;;;;;4934438;29;20214;-79
2021/07/15 05:19:53;;;;;;;1.50;1.40;;;18.00;99.90;;;;;;4946863;29;20427;-80
2021/07/15 05:22:18;;;;;;;5.37;2.10;;;17.90;99.90;;;;;;4935472;29;20575;-79
2021/07/15 05:24:44;;;;;;;4.27;1.87;;;18.00;99.90;;;;;;4937070;29;20250;-79
2021/07/15 05:27:09;;;;;;;0.70;0.70;;;17.90;99.90;;;;;;4938832;29;20175;-79
2021/07/15 05:29:35;;;;;;;4.53;1.90;;;18.00;99.90;;;;;;4942634;29;20179;-78
2021/07/15 05:32:01;;;;;;;1.50;1.40;;;18.10;99.90;;;;;;4942508;29;20731;-79
2021/07/15 05:34:27;;;;;;;2.20;2.10;;;18.20;99.90;;;;;;4938753;29;20194;-79
2021/07/15 05:36:53;;;;;;;1.50;1.40;;;18.40;99.90;;;;;;4946913;29;20414;-77
2021/07/15 05:39:18;;;;;;;5.07;1.57;;;18.50;99.90;;;;;;4949816;28;20242;-77
2021/07/15 05:41:44;;;;;;;1.27;1.17;;;18.60;99.90;;;;;;4957373;29;20229;-78
2021/07/15 05:44:10;;;;;;;3.17;1.73;;;18.60;99.90;;;;;;4942946;29;20207;-78
2021/07/15 05:46:35;;;;;;;1.63;1.53;;;18.70;99.90;;;;;;4940437;29;20606;-79
2021/07/15 05:49:01;;;;;;;1.63;1.20;;;18.80;99.90;;;;;;4941282;29;20544;-79
2021/07/15 05:51:26;;;;;;;4.20;3.80;;;18.90;99.90;;;;;;4942016;29;20203;-78
2021/07/15 05:53:52;;;;;;;2.60;0.80;;;19.00;99.90;;;;;;4940362;29;20175;-78
2021/07/15 05:56:17;;;;;;;3.47;2.50;;;19.00;99.90;;;;;;4941133;29;20179;-79
2021/07/15 05:58:43;;;;;;;1.13;1.07;;;19.10;99.90;;;;;;4936126;29;20521;-79
2021/07/15 06:01:08;;;;;;;2.20;2.10;;;19.20;99.90;;;;;;4940249;29;20568;-78
2021/07/15 06:03:34;;;;;;;1.43;1.00;;;19.30;99.90;;;;;;4934087;29;20182;-78
2021/07/15 06:05:59;;;;;;;1.47;1.00;;;19.30;99.90;;;;;;4939704;29;20785;-78
2021/07/15 06:08:25;;;;;;;4.80;2.37;;;19.40;99.90;;;;;;4938990;29;20179;-79
2021/07/15 06:10:51;;;;;;;2.60;1.00;;;19.50;99.90;;;;;;4932192;29;20223;-79
2021/07/15 06:13:16;;;;;;;1.87;1.40;;;19.50;99.90;;;;;;4925064;29;20680;-78
2021/07/15 06:15:42;;;;;;;2.80;1.30;;;19.50;99.90;;;;;;4927869;29;20210;-79
2021/07/15 06:18:08;;;;;;;2.17;1.57;;;19.60;99.90;;;;;;4952836;29;20179;-79
2021/07/15 06:20:33;;;;;;;1.03;0.93;;;19.60;99.90;;;;;;4942532;28;20238;-79
2021/07/15 06:22:59;;;;;;;1.30;1.20;;;19.70;99.90;;;;;;4954915;29;20233;-80
2021/07/15 06:25:25;;;;;;;2.57;1.07;;;19.70;99.90;;;;;;4941598;28;20214;-79
2021/07/15 06:27:54;;;;;;;1.37;1.27;;;19.80;99.90;;;;;;4932242;29;20732;-79
2021/07/15 06:30:20;;;;;;;1.67;1.47;;;19.70;99.90;;;;;;4940918;29;20454;-78
2021/07/15 06:32:46;;;;;;;3.83;3.53;;;19.80;99.90;;;;;;4941095;28;20439;-78
2021/07/15 06:35:14;;;;;;;4.80;2.30;;;19.80;99.90;;;;;;4935645;29;20179;-79
2021/07/15 06:37:40;;;;;;;1.50;1.27;;;19.80;99.90;;;;;;4948305;29;20173;-77
2021/07/15 06:40:09;;;;;;;3.33;3.03;;;19.80;99.90;;;;;;4948393;29;20935;-78
2021/07/15 06:42:35;;;;;;;2.93;2.73;;;19.90;99.90;;;;;;4941664;28;20210;-78
2021/07/15 06:45:02;;;;;;;2.60;2.40;;;19.90;99.90;;;;;;4934118;29;20431;-79
2021/07/15 06:47:28;;;;;;;2.40;1.37;;;19.90;99.90;;;;;;4933211;29;20419;-82
2021/07/15 06:49:53;;;;;;;1.23;1.13;;;20.00;99.90;;;;;;4946286;29;20973;-79
2021/07/15 06:52:19;;;;;;;1.70;1.37;;;20.00;99.90;;;;;;4944646;28;20198;-77
2021/07/15 06:54:44;;;;;;;4.00;1.27;;;20.10;99.90;;;;;;4952757;29;20175;-80
2021/07/15 06:57:10;;;;;;;4.10;2.53;;;20.20;99.90;;;;;;4959390;28;20198;-81
2021/07/15 06:59:36;;;;;;;2.70;1.60;;;20.20;99.90;;;;;;4957278;28;20217;-81
2021/07/15 07:02:01;;;;;;;2.20;2.10;;;20.20;99.90;;;;;;4948876;28;20492;-79
2021/07/15 07:04:27;;;;;;;1.70;1.60;;;20.40;99.90;;;;;;4937953;29;20257;-80
2021/07/15 07:06:52;;;;;;;1.83;1.53;;;20.40;99.90;;;;;;4937866;29;20194;-80
2021/07/15 07:09:18;;;;;;;1.20;1.07;;;20.50;99.90;;;;;;4955909;29;20189;-80
2021/07/15 07:11:44;;;;;;;2.20;2.00;;;20.60;99.90;;;;;;4956522;28;20214;-79
2021/07/15 07:14:09;;;;;;;1.20;1.10;;;20.80;99.90;;;;;;4955122;29;20166;-79
2021/07/15 07:16:35;;;;;;;4.67;2.70;;;21.30;99.90;;;;;;4955993;28;20457;-80
2021/07/15 07:19:01;;;;;;;4.70;3.90;;;21.60;99.90;;;;;;4950317;29;20670;-80
2021/07/15 07:21:31;;;;;;;3.93;3.20;;;22.00;99.90;;;;;;4937187;29;20210;-82
2021/07/15 07:23:58;;;;;;;3.00;2.13;;;22.20;99.90;;;;;;4935823;29;20187;-79
2021/07/15 07:26:24;;;;;;;3.03;1.73;;;22.30;99.90;;;;;;4940280;29;20417;-79
2021/07/15 07:28:49;;;;;;;3.03;1.20;;;22.40;99.90;;;;;;4937378;28;20423;-77
2021/07/15 07:31:15;;;;;;;1.10;1.00;;;22.50;99.90;;;;;;4936700;29;20211;-80
2021/07/15 07:33:40;;;;;;;3.30;2.23;;;22.70;99.90;;;;;;4943823;29;20175;-81
2021/07/15 07:36:07;;;;;;;3.20;1.43;;;22.70;99.90;;;;;;4940956;29;20217;-78
2021/07/15 07:38:32;;;;;;;1.00;0.90;;;22.80;99.90;;;;;;4937315;29;20167;-78
2021/07/15 07:40:58;;;;;;;1.07;0.97;;;23.00;99.90;;;;;;4955027;28;20441;-79
2021/07/15 07:43:23;;;;;;;1.27;1.20;;;23.10;99.90;;;;;;4945359;29;20622;-79
2021/07/15 07:45:49;;;;;;;1.43;1.30;;;23.20;99.90;;;;;;4952550;29;20214;-79
2021/07/15 07:48:15;;;;;;;2.20;2.00;;;23.50;99.90;;;;;;4942195;29;20178;-79
2021/07/15 07:50:40;;;;;;;1.47;1.03;;;23.80;99.90;;;;;;4952507;29;20198;-78
2021/07/15 07:53:06;;;;;;;2.83;2.13;;;24.00;99.90;;;;;;4943723;29;20241;-78
2021/07/15 07:55:31;;;;;;;3.70;1.53;;;24.10;99.90;;;;;;4935656;29;20178;-81
2021/07/15 07:57:57;;;;;;;1.20;0.93;;;24.40;99.90;;;;;;4937858;29;20261;-80
2021/07/15 08:00:23;;;;;;;1.30;1.03;;;24.60;99.90;;;;;;4940304;29;20186;-79
2021/07/15 08:02:48;;;;;;;1.67;1.57;;;24.80;99.90;;;;;;4944739;29;20194;-79
2021/07/15 08:05:19;;;;;;;2.60;1.37;;;25.00;99.90;;;;;;4955825;28;20213;-79
2021/07/15 08:07:46;;;;;;;2.23;1.90;;;25.30;99.90;;;;;;4948848;29;20541;-79
2021/07/15 08:10:13;;;;;;;1.40;1.30;;;25.40;99.90;;;;;;4935602;29;20546;-80
2021/07/15 08:12:39;;;;;;;1.90;1.40;;;25.80;99.90;;;;;;4935353;29;20447;-79
2021/07/15 08:15:06;;;;;;;1.20;1.10;;;26.00;99.90;;;;;;4936047;29;20423;-80
2021/07/15 08:17:32;;;;;;;0.90;0.70;;;26.20;99.90;;;;;;4940560;29;20431;-80
2021/07/15 08:19:57;;;;;;;1.47;1.03;;;26.50;99.90;;;;;;4934214;29;20497;-79
2021/07/15 08:22:23;;;;;;;2.57;2.30;;;26.60;99.90;;;;;;4966813;28;20210;-79
2021/07/15 08:24:49;;;;;;;1.77;1.67;;;26.90;99.90;;;;;;4954511;28;20184;-78
2021/07/15 08:27:14;;;;;;;1.50;1.40;;;27.10;99.90;;;;;;4954091;28;20175;-80
2021/07/15 08:29:40;;;;;;;1.60;1.50;;;27.30;99.90;;;;;;4936170;29;20187;-79
2021/07/15 08:32:07;;;;;;;1.73;1.63;;;27.50;99.90;;;;;;4933985;29;20766;-78
2021/07/15 08:34:33;;;;;;;1.10;0.93;;;27.40;99.90;;;;;;4933940;29;20254;-79
2021/07/15 08:36:58;;;;;;;1.10;1.00;;;27.20;99.90;;;;;;4934831;29;20521;-80
2021/07/15 08:39:24;;;;;;;1.30;1.20;;;27.00;99.90;;;;;;4934101;29;20505;-80
2021/07/15 08:41:50;;;;;;;1.37;1.27;;;26.80;99.90;;;;;;4949813;29;20195;-79
2021/07/15 08:44:16;;;;;;;1.00;0.90;;;26.50;99.90;;;;;;4935248;29;20210;-79
2021/07/15 08:46:49;;;;;;;1.93;1.17;;;26.40;99.90;;;;;;4942028;29;20202;-79
2021/07/15 08:49:20;;;;;;;1.43;0.93;;;26.30;99.90;;;;;;4949225;28;20431;-79
2021/07/15 08:51:47;;;;;;;2.03;1.43;;;26.20;99.90;;;;;;4943619;29;21057;-85
2021/07/15 08:54:15;;;;;;;1.97;1.70;;;26.30;99.90;;;;;;4934952;29;20476;-86
2021/07/15 08:56:45;;;;;;;0.80;0.70;;;26.30;99.90;;;;;;4938300;29;20783;-86
2021/07/15 08:59:16;;;;;;;2.50;1.07;;;26.40;99.90;;;;;;4956393;28;20920;-85
2021/07/15 09:01:47;;;;;;;1.00;0.80;;;26.50;99.90;;;;;;4953069;28;20532;-85
2021/07/15 09:04:13;;;;;;;0.93;0.83;;;26.50;99.90;;;;;;4944699;28;20458;-85
2021/07/15 09:06:41;;;;;;;1.57;0.77;;;26.50;99.90;;;;;;4942976;29;20434;-85
2021/07/15 09:09:07;;;;;;;2.17;1.40;;;26.50;99.90;;;;;;4935897;29;20418;-86
2021/07/15 09:11:32;;;;;;;1.07;0.97;;;26.50;99.90;;;;;;4934336;29;20463;-84
2021/07/15 09:13:58;;;;;;;0.80;0.70;;;26.40;99.90;;;;;;4930936;29;20712;-84
2021/07/15 09:16:24;;;;;;;1.73;1.63;;;26.30;99.90;;;;;;4932149;29;20223;-84
2021/07/15 09:19:07;;;;;;;0.83;0.77;;;26.30;99.90;;;;;;4943934;29;20178;-84
2021/07/15 09:21:35;;;;;;;1.00;0.80;;;26.40;99.90;;;;;;4946053;29;20298;-85
2021/07/15 09:24:03;;;;;;;1.10;1.00;;;26.40;99.90;;;;;;4946764;28;20801;-84
2021/07/15 09:26:30;;;;;;;1.10;0.80;;;26.70;99.90;;;;;;4955028;28;20476;-83
2021/07/15 09:29:16;;;;;;;1.33;0.87;;;27.00;99.90;;;;;;4954070;28;20441;-82
2021/07/15 09:31:56;;;;;;;1.10;1.00;;;27.60;99.90;;;;;;4946666;28;20548;-82
2021/07/15 09:34:22;;;;;;;0.90;0.80;;;27.90;99.90;;;;;;4943485;29;20414;-83
2021/07/15 09:36:50;;;;;;;1.57;0.90;;;28.10;99.90;;;;;;4945579;29;20449;-83
2021/07/15 09:39:23;;;;;;;1.00;0.80;;;28.20;99.90;;;;;;4939808;29;20481;-83
2021/07/15 09:42:06;;;;;;;1.10;1.00;;;28.20;99.90;;;;;;4938647;29;20450;-83
2021/07/15 09:44:33;;;;;;;1.17;0.70;;;28.10;99.90;;;;;;4945761;29;20881;-82
2021/07/15 09:46:58;;;;;;;1.00;0.83;;;27.90;99.90;;;;;;4942485;28;20442;-83
2021/07/15 09:49:32;;;;;;;1.10;0.90;;;27.70;99.90;;;;;;4944481;28;20449;-83
2021/07/15 09:51:58;;;;;;;2.90;2.70;;;27.30;99.90;;;;;;4945880;29;20210;-83
2021/07/15 09:54:26;;;;;;;2.20;0.90;;;27.00;99.90;;;;;;4942710;29;20962;-83
2021/07/15 09:56:51;;;;;;;1.00;0.90;;;26.70;99.90;;;;;;4937278;29;20426;-83
2021/07/15 09:59:17;;;;;;;2.07;1.10;;;26.40;99.90;;;;;;4951211;29;20445;-83
2021/07/15 10:02:25;;;;;;;1.33;0.70;;;26.10;99.90;;;;;;4953996;28;20200;-83
2021/07/15 10:04:51;;;;;;;0.80;0.70;;;25.80;99.90;;;;;;4950289;29;20278;-83
2021/07/15 10:07:49;;;;;;;1.00;0.87;;;25.60;99.90;;;;;;4940720;29;20438;-84
2021/07/15 10:10:18;;;;;;;2.47;0.90;;;25.30;99.90;;;;;;4936990;29;20466;-83
2021/07/15 10:12:44;;;;;;;1.93;1.83;;;25.10;99.90;;;;;;4938875;29;20521;-83
2021/07/15 10:15:13;;;;;;;2.30;1.07;;;24.90;99.90;;;;;;4950184;29;20418;-83
2021/07/15 10:17:42;;;;;;;0.80;0.53;;;24.70;99.90;;;;;;4957625;28;20409;-83
2021/07/15 10:20:10;;;;;;;1.53;0.80;;;24.50;99.90;;;;;;4950065;28;20517;-83
2021/07/15 10:22:35;;;;;;;1.30;1.00;;;24.40;99.90;;;;;;4949373;29;20465;-83
2021/07/15 10:25:01;;;;;;;0.87;0.70;;;24.30;99.90;;;;;;4957452;29;20425;-83
2021/07/15 10:27:27;;;;;;;1.23;1.13;;;24.20;99.90;;;;;;4949865;28;20187;-84
2021/07/15 10:29:54;;;;;;;1.37;0.83;;;24.10;99.90;;;;;;4936968;29;20182;-84
2021/07/15 10:32:21;;;;;;;0.90;0.70;;;24.10;99.90;;;;;;4938989;29;20434;-83
2021/07/15 10:34:52;;;;;;;0.90;0.73;;;24.00;99.90;;;;;;4956231;28;20428;-83
2021/07/15 10:37:19;;;;;;;1.30;0.90;;;24.00;99.90;;;;;;4938792;29;20420;-83
2021/07/15 10:39:46;;;;;;;1.43;1.20;;;23.90;99.90;;;;;;4945704;29;20418;-84
2021/07/15 10:42:12;;;;;;;4.67;4.07;;;23.90;99.90;;;;;;4946563;29;20473;-83
2021/07/15 10:44:40;;;;;;;2.10;1.30;;;23.90;99.90;;;;;;4954432;29;20444;-83
2021/07/15 10:47:07;;;;;;;0.70;0.60;;;23.80;99.90;;;;;;4951549;29;20686;-82
2021/07/15 10:49:35;;;;;;;1.33;0.90;;;23.80;99.90;;;;;;4945420;29;20474;-82
2021/07/15 10:52:01;;;;;;;0.80;0.60;;;23.80;99.90;;;;;;4937444;29;20466;-82
2021/07/15 10:54:28;;;;;;;2.60;1.10;;;23.80;99.90;;;;;;4939730;29;20916;-83
2021/07/15 10:56:54;;;;;;;2.07;0.73;;;23.90;99.90;;;;;;4945280;29;20509;-83
2021/07/15 10:59:29;;;;;;;2.07;1.17;;;24.00;99.90;;;;;;4949761;29;20454;-83
2021/07/15 11:01:59;;;;;;;1.33;1.23;;;24.10;99.90;;;;;;4938500;29;20449;-83
2021/07/15 11:04:39;;;;;;;1.73;0.83;;;24.10;99.90;;;;;;4940656;29;20517;-83
2021/07/15 11:07:31;;;;;;;1.10;0.80;;;24.20;99.90;;;;;;4941718;29;20425;-82
2021/07/15 11:10:14;;;;;;;1.27;0.70;;;24.30;99.90;;;;;;4939535;29;20485;-82
2021/07/15 11:12:39;;;;;;;3.93;2.60;;;24.40;99.90;;;;;;4938171;29;20525;-83
2021/07/15 11:15:09;;;;;;;0.80;0.70;;;24.40;99.90;;;;;;4941391;29;20466;-82
2021/07/15 11:17:50;;;;;;;1.00;0.70;;;24.40;99.90;;;;;;4941714;29;20628;-82
2021/07/15 11:20:27;;;;;;;0.90;0.80;;;24.40;99.90;;;;;;4954341;29;20426;-82
2021/07/15 11:22:56;;;;;;;1.00;0.87;;;24.40;99.90;;;;;;4953718;28;20489;-82
2021/07/15 11:25:27;;;;;;;1.00;0.80;;;24.40;99.90;;;;;;4949530;29;20446;-82
2021/07/15 11:28:02;;;;;;;0.80;0.60;;;24.40;99.90;;;;;;4944646;29;20434;-82
2021/07/15 11:30:34;;;;;;;0.90;0.80;;;24.40;99.90;;;;;;4941056;29;20457;-82
2021/07/15 11:33:18;;;;;;;1.53;1.43;;;24.40;99.90;;;;;;4938906;29;20453;-82
2021/07/15 11:36:00;;;;;;;1.20;0.80;;;24.30;99.90;;;;;;4938298;29;20419;-82
2021/07/15 11:38:41;;;;;;;1.63;0.90;;;24.30;99.90;;;;;;4937044;29;20510;-82
2021/07/15 11:41:20;;;;;;;1.10;0.80;;;24.40;99.90;;;;;;4936800;29;20431;-82
2021/07/15 11:43:51;;;;;;;0.80;0.70;;;24.20;99.90;;;;;;4939266;29;20944;-83
2021/07/15 11:46:32;;;;;;;1.73;1.33;;;24.20;99.90;;;;;;4939616;29;20468;-82
2021/07/15 11:49:26;;;;;;;0.90;0.70;;;24.20;99.90;;;;;;4944522;29;20430;-82
2021/07/15 11:55:47;;;;;;;0.90;0.60;;;24.20;99.90;;;;;;4956321;29;20953;-82
2021/07/15 11:58:50;;;;;;;0.70;0.50;;;24.20;99.90;;;;;;4891786;29;20775;-82
2021/07/15 12:01:20;;;;;;;1.63;1.07;;;24.10;99.90;;;;;;4936445;29;20430;-82
2021/07/15 12:04:03;;;;;;;1.63;1.00;;;24.20;99.90;;;;;;4937752;29;20466;-82
2021/07/15 12:06:30;;;;;;;1.10;1.00;;;24.20;99.90;;;;;;4937745;29;20456;-82
2021/07/15 12:09:52;;;;;;;1.33;1.23;;;24.20;99.90;;;;;;4938134;29;20433;-82
2021/07/15 12:12:58;;;;;;;1.10;0.90;;;24.20;99.90;;;;;;4949507;29;20446;-82
2021/07/15 12:15:26;;;;;;;0.90;0.70;;;24.20;99.90;;;;;;4916699;29;20427;-82
2021/07/15 12:17:58;;;;;;;0.90;0.70;;;24.20;99.90;;;;;;4930213;29;20442;-82
2021/07/15 12:20:42;;;;;;;0.93;0.83;;;24.20;99.90;;;;;;4946262;29;20419;-83
2021/07/15 12:23:18;;;;;;;1.10;0.80;;;24.20;99.90;;;;;;4935857;29;20436;-82
2021/07/15 12:25:46;;;;;;;1.10;0.97;;;24.30;99.90;;;;;;4953903;29;20426;-82
2021/07/15 12:28:17;;;;;;;1.40;0.93;;;24.40;99.90;;;;;;4950355;29;20418;-82
2021/07/15 12:31:17;;;;;;;0.80;0.70;;;24.40;99.90;;;;;;4943947;29;20457;-82
2021/07/15 12:33:50;;;;;;;0.90;0.87;;;24.50;99.90;;;;;;4942259;28;20429;-84
2021/07/15 12:36:18;;;;;;;1.13;1.03;;;24.60;99.90;;;;;;4939618;29;20423;-80
2021/07/15 12:38:49;;;;;;;0.77;0.60;;;24.70;99.90;;;;;;4943116;29;20414;-81
2021/07/15 12:41:26;;;;;;;0.80;0.70;;;24.70;99.90;;;;;;4936326;29;20442;-83
2021/07/15 12:43:54;;;;;;;1.30;0.90;;;24.80;99.90;;;;;;4938278;29;20419;-82
2021/07/15 12:46:24;;;;;;;1.60;1.43;;;24.80;99.90;;;;;;4936026;29;20493;-82
2021/07/15 12:48:53;;;;;;;2.03;0.90;;;24.80;99.90;;;;;;4936111;29;20419;-82
2021/07/15 12:51:21;;;;;;;0.80;0.60;;;24.80;99.90;;;;;;4935677;29;20462;-83
2021/07/15 12:53:48;;;;;;;1.77;1.20;;;24.80;99.90;;;;;;4940784;29;20490;-81
2021/07/15 12:56:37;;;;;;;3.00;2.63;;;24.70;99.90;;;;;;4943458;29;20784;-82
2021/07/15 12:59:11;;;;;;;1.37;0.80;;;24.70;99.90;;;;;;4947589;29;20493;-80
2021/07/15 13:01:38;;;;;;;1.70;1.27;;;24.60;99.90;;;;;;4953967;29;20445;-83
2021/07/15 13:04:08;;;;;;;1.27;0.63;;;24.60;99.90;;;;;;4944188;29;20828;-82